| time (UTC) | temp C | wind direction | speed KPH | gust KPH | rain 1hr cm | rain 24hr cm | rain mn cm | humidity % | barometer mb |
| 20260502164041 | 21 | 306 | 6.4 | 20.9 | 0.00 | 0.00 | 0.00 | 52 | 1020.8 |
| 20260502163541 | 21 | 306 | 6.4 | 19.3 | 0.00 | 0.00 | 0.00 | 51 | 1020.8 |
| 20260502163057 | 21 | 290 | 8.0 | 24.1 | 0.00 | 0.00 | 0.00 | 51 | 1020.8 |
| 20260502162541 | 20 | 83 | 12.9 | 24.1 | 0.00 | 0.00 | 0.00 | 52 | 1020.8 |
| 20260502162040 | 20 | 101 | 6.4 | 20.9 | 0.00 | 0.00 | 0.00 | 52 | 1020.8 |
| 20260502161551 | 20 | 305 | 8.0 | 20.9 | 0.00 | 0.00 | 0.00 | 53 | 1020.8 |
| 20260502161041 | 20 | 49 | 3.2 | 20.9 | 0.00 | 0.00 | 0.00 | 58 | 1020.7 |
| 20260502160542 | 20 | 11 | 11.3 | 20.9 | 0.00 | 0.00 | 0.00 | 56 | 1020.8 |
| 20260502152039 | 19 | 276 | 8.0 | 24.1 | 0.00 | 0.00 | 0.00 | 64 | 1020.5 |
| 20260502151611 | 18 | 315 | 8.0 | 17.7 | 0.00 | 0.00 | 0.00 | 66 | 1020.5 |
| 20260502151041 | 18 | 66 | 4.8 | 16.1 | 0.00 | 0.00 | 0.00 | 66 | 1020.5 |
| 20260502150541 | 18 | 41 | 4.8 | 17.7 | 0.00 | 0.00 | 0.00 | 67 | 1020.6 |
| 20260502130541 | 11 | 41 | 1.6 | 3.2 | 0.00 | 0.03 | 0.00 | 93 | 1020.1 |
| 20260502123541 | 10 | 31 | 1.6 | 4.8 | 0.00 | 0.03 | 0.00 | 92 | 1019.5 |
| 20260502123056 | 10 | 57 | 0.0 | 3.2 | 0.00 | 0.03 | 0.00 | 91 | 1019.4 |
| 20260502122541 | 9 | 143 | 1.6 | 4.8 | 0.00 | 0.03 | 0.00 | 91 | 1019.4 |
| 20260502122041 | 9 | 54 | 1.6 | 4.8 | 0.00 | 0.03 | 0.00 | 91 | 1019.3 |
| 20260502121557 | 9 | 66 | 1.6 | 4.8 | 0.00 | 0.03 | 0.00 | 91 | 1019.3 |
| 20260502121041 | 9 | 28 | 1.6 | 3.2 | 0.00 | 0.03 | 0.00 | 90 | 1019.2 |
| 20260502120541 | 9 | 98 | 1.6 | 3.2 | 0.00 | 0.03 | 0.00 | 90 | 1019.2 |
| 20260502115543 | 9 | 70 | 0.0 | 3.2 | 0.00 | 0.05 | 0.00 | 90 | 1019.0 |
| 20260502115043 | 9 | 127 | 0.0 | 3.2 | 0.00 | 0.05 | 0.00 | 90 | 1018.8 |
| 20260502114603 | 9 | 83 | 0.0 | 4.8 | 0.00 | 0.05 | 0.00 | 90 | 1018.8 |
| 20260502114042 | 9 | 83 | 0.0 | 4.8 | 0.00 | 0.05 | 0.00 | 90 | 1018.8 |
| 20260502113541 | 9 | 121 | 3.2 | 4.8 | 0.00 | 0.05 | 0.00 | 90 | 1018.7 |
| 20260502113103 | 9 | 134 | 1.6 | 4.8 | 0.00 | 0.05 | 0.00 | 90 | 1018.7 |
| 20260502112542 | 10 | 132 | 1.6 | 6.4 | 0.00 | 0.05 | 0.00 | 90 | 1018.6 |
| 20260502112042 | 10 | 109 | 1.6 | 6.4 | 0.00 | 0.05 | 0.00 | 90 | 1018.5 |
| 20260502111557 | 10 | 127 | 3.2 | 6.4 | 0.00 | 0.05 | 0.00 | 90 | 1018.5 |
| 20260502111041 | 10 | 136 | 1.6 | 4.8 | 0.00 | 0.05 | 0.00 | 90 | 1018.4 |
| 20260502110541 | 10 | 148 | 0.0 | 4.8 | 0.00 | 0.05 | 0.00 | 90 | 1018.4 |
| 20260502110053 | 10 | 127 | 1.6 | 4.8 | 0.00 | 0.05 | 0.00 | 90 | 1018.2 |
| 20260502105543 | 10 | 134 | 1.6 | 4.8 | 0.00 | 0.05 | 0.00 | 90 | 1018.3 |
| 20260502105045 | 10 | 83 | 0.0 | 3.2 | 0.00 | 0.05 | 0.00 | 90 | 1018.3 |
| 20260502104606 | 10 | 57 | 0.0 | 3.2 | 0.00 | 0.05 | 0.00 | 90 | 1018.2 |
| 20260502104043 | 10 | 127 | 1.6 | 3.2 | 0.00 | 0.05 | 0.00 | 90 | 1018.0 |
| 20260502103543 | 10 | 127 | 0.0 | 3.2 | 0.00 | 0.05 | 0.00 | 90 | 1018.0 |
| 20260502103051 | 10 | 143 | 1.6 | 3.2 | 0.00 | 0.05 | 0.00 | 90 | 1017.9 |
| 20260502102545 | 10 | 127 | 1.6 | 3.2 | 0.00 | 0.05 | 0.00 | 90 | 1017.8 |
| 20260502102040 | 10 | 0 | 0.0 | 3.2 | 0.00 | 0.05 | 0.00 | 89 | 1017.8 |
| 20260502101607 | 10 | 127 | 1.6 | 3.2 | 0.00 | 0.05 | 0.00 | 89 | 1017.9 |
| 20260502101043 | 10 | 113 | 1.6 | 3.2 | 0.00 | 0.05 | 0.00 | 89 | 1017.9 |
| 20260502100540 | 10 | 83 | 0.0 | 3.2 | 0.00 | 0.05 | 0.00 | 89 | 1017.8 |
| 20260502091045 | 11 | 127 | 1.6 | 3.2 | 0.00 | 0.05 | 0.00 | 89 | 1017.5 |
| 20260502090546 | 11 | 127 | 1.6 | 3.2 | 0.00 | 0.05 | 0.00 | 89 | 1017.5 |
| 20260502071038 | 12 | 116 | 0.0 | 3.2 | 0.00 | 0.10 | 0.00 | 88 | 1017.7 |
| 20260502070542 | 13 | 0 | 0.0 | 3.2 | 0.00 | 0.10 | 0.00 | 88 | 1017.8 |
| 20260502070106 | 13 | 0 | 1.6 | 3.2 | 0.00 | 0.10 | 0.00 | 88 | 1017.8 |
| 20260502065540 | 13 | 359 | 0.0 | 3.2 | 0.00 | 0.18 | 0.00 | 88 | 1017.9 |
| 20260502065038 | 13 | 359 | 0.0 | 3.2 | 0.00 | 0.18 | 0.00 | 88 | 1017.8 |
| 20260502064556 | 13 | 83 | 0.0 | 3.2 | 0.00 | 0.18 | 0.00 | 88 | 1017.7 |
| 20260502064041 | 13 | 31 | 0.0 | 3.2 | 0.00 | 0.18 | 0.00 | 88 | 1017.8 |
| 20260502063543 | 13 | 0 | 0.0 | 3.2 | 0.00 | 0.18 | 0.00 | 88 | 1017.8 |
| 20260502063057 | 13 | 119 | 1.6 | 3.2 | 0.00 | 0.18 | 0.00 | 88 | 1017.9 |
| 20260502062542 | 13 | 95 | 0.0 | 3.2 | 0.00 | 0.18 | 0.00 | 88 | 1017.9 |
| 20260502062040 | 13 | 0 | 0.0 | 3.2 | 0.00 | 0.18 | 0.00 | 88 | 1017.8 |
| 20260502061549 | 13 | 0 | 1.6 | 3.2 | 0.00 | 0.18 | 0.00 | 87 | 1017.8 |
| 20260502061038 | 13 | 0 | 0.0 | 3.2 | 0.00 | 0.18 | 0.00 | 87 | 1017.8 |
| 20260502060538 | 13 | 58 | 0.0 | 3.2 | 0.00 | 0.18 | 0.00 | 87 | 1017.7 |
| 20260502060052 | 13 | 41 | 0.0 | 3.2 | 0.00 | 0.18 | 0.00 | 87 | 1017.8 |
| 20260502055539 | 13 | 58 | 1.6 | 4.8 | 0.00 | 0.18 | 0.00 | 87 | 1017.9 |
| 20260502055045 | 13 | 119 | 1.6 | 4.8 | 0.00 | 0.18 | 0.00 | 87 | 1017.9 |
| 20260502054600 | 13 | 121 | 3.2 | 4.8 | 0.00 | 0.18 | 0.00 | 87 | 1018.0 |
| 20260502054044 | 13 | 119 | 1.6 | 3.2 | 0.00 | 0.18 | 0.00 | 86 | 1018.1 |
| 20260502053541 | 13 | 41 | 0.0 | 3.2 | 0.00 | 0.18 | 0.00 | 87 | 1018.1 |
| 20260502053045 | 13 | 83 | 0.0 | 3.2 | 0.00 | 0.18 | 0.00 | 87 | 1018.1 |
| 20260502052541 | 13 | 116 | 0.0 | 3.2 | 0.00 | 0.18 | 0.00 | 87 | 1018.0 |
| 20260502052039 | 13 | 101 | 1.6 | 3.2 | 0.00 | 0.18 | 0.00 | 87 | 1018.0 |
| 20260502051550 | 13 | 359 | 0.0 | 3.2 | 0.00 | 0.18 | 0.00 | 87 | 1018.0 |
| 20260502051041 | 13 | 306 | 0.0 | 3.2 | 0.00 | 0.18 | 0.00 | 87 | 1018.0 |
| 20260502050538 | 13 | 83 | 0.0 | 4.8 | 0.00 | 0.18 | 0.00 | 87 | 1018.0 |
| 20260502050051 | 13 | 0 | 0.0 | 8.0 | 0.00 | 0.18 | 0.00 | 87 | 1017.9 |
| 20260502045541 | 13 | 299 | 0.0 | 8.0 | 0.00 | 0.18 | 0.18 | 87 | 1017.9 |
| 20260502045041 | 13 | 303 | 3.2 | 8.0 | 0.00 | 0.18 | 0.18 | 87 | 1017.9 |
| 20260502044550 | 13 | 331 | 3.2 | 8.0 | 0.00 | 0.18 | 0.18 | 87 | 1017.8 |
| 20260502044038 | 13 | 299 | 3.2 | 8.0 | 0.00 | 0.18 | 0.18 | 87 | 1017.7 |
| 20260502043542 | 13 | 299 | 3.2 | 8.0 | 0.00 | 0.18 | 0.18 | 86 | 1017.6 |
| 20260502043110 | 13 | 309 | 1.6 | 8.0 | 0.00 | 0.18 | 0.18 | 86 | 1017.6 |
| 20260502042542 | 13 | 0 | 3.2 | 6.4 | 0.00 | 0.18 | 0.18 | 86 | 1017.6 |
| 20260502042039 | 13 | 299 | 0.0 | 4.8 | 0.00 | 0.18 | 0.18 | 86 | 1017.5 |
| 20260502041613 | 13 | 0 | 0.0 | 6.4 | 0.00 | 0.18 | 0.18 | 86 | 1017.5 |
| 20260502041038 | 13 | 291 | 1.6 | 6.4 | 0.00 | 0.18 | 0.18 | 86 | 1017.5 |
| 20260502040540 | 13 | 265 | 0.0 | 3.2 | 0.00 | 0.18 | 0.18 | 86 | 1017.4 |
| 20260502040058 | 13 | 0 | 0.0 | 3.2 | 0.00 | 0.18 | 0.18 | 86 | 1017.4 |
| 20260502035538 | 14 | 0 | 0.0 | 3.2 | 0.00 | 0.18 | 0.18 | 86 | 1017.3 |
| 20260502035043 | 14 | 58 | 0.0 | 3.2 | 0.00 | 0.18 | 0.18 | 86 | 1017.3 |
| 20260502034552 | 14 | 0 | 0.0 | 3.2 | 0.00 | 0.18 | 0.18 | 86 | 1017.4 |
| 20260502034042 | 14 | 101 | 0.0 | 3.2 | 0.00 | 0.18 | 0.18 | 86 | 1017.3 |
| 20260502033538 | 14 | 109 | 0.0 | 3.2 | 0.00 | 0.18 | 0.18 | 86 | 1017.3 |
| 20260502033053 | 14 | 143 | 0.0 | 3.2 | 0.00 | 0.18 | 0.18 | 85 | 1017.3 |
| 20260502032538 | 14 | 83 | 1.6 | 3.2 | 0.00 | 0.18 | 0.18 | 85 | 1017.3 |
| 20260502032038 | 14 | 66 | 0.0 | 3.2 | 0.00 | 0.18 | 0.18 | 85 | 1017.4 |
| 20260502031549 | 14 | 0 | 0.0 | 3.2 | 0.00 | 0.18 | 0.18 | 84 | 1017.3 |
| 20260502031038 | 14 | 299 | 1.6 | 3.2 | 0.00 | 0.18 | 0.18 | 84 | 1017.2 |
| 20260502030542 | 14 | 282 | 0.0 | 4.8 | 0.00 | 0.18 | 0.18 | 84 | 1017.2 |
| 20260502030109 | 14 | 0 | 0.0 | 4.8 | 0.00 | 0.18 | 0.18 | 84 | 1017.2 |
| 20260502025538 | 14 | 0 | 0.0 | 4.8 | 0.00 | 0.18 | 0.18 | 84 | 1017.2 |
| 20260502025044 | 15 | 282 | 1.6 | 4.8 | 0.00 | 0.18 | 0.18 | 84 | 1017.2 |
| 20260502024602 | 15 | 0 | 0.0 | 3.2 | 0.00 | 0.18 | 0.18 | 84 | 1017.0 |
| 20260502024038 | 15 | 0 | 0.0 | 3.2 | 0.00 | 0.18 | 0.18 | 84 | 1017.0 |
| 20260502023542 | 15 | 0 | 0.0 | 3.2 | 0.00 | 0.18 | 0.18 | 83 | 1016.8 |
| 20260502023125 | 15 | 0 | 0.0 | 3.2 | 0.00 | 0.18 | 0.18 | 83 | 1016.8 |
| 20260502022544 | 15 | 0 | 0.0 | 3.2 | 0.00 | 0.18 | 0.18 | 83 | 1016.7 |
| 20260502022042 | 15 | 0 | 0.0 | 3.2 | 0.00 | 0.18 | 0.18 | 82 | 1016.6 |
| 20260502021550 | 15 | 143 | 1.6 | 3.2 | 0.00 | 0.18 | 0.18 | 82 | 1016.6 |
| 20260502021042 | 15 | 0 | 0.0 | 3.2 | 0.00 | 0.18 | 0.18 | 81 | 1016.5 |
| 20260502020543 | 15 | 195 | 0.0 | 3.2 | 0.00 | 0.18 | 0.18 | 81 | 1016.4 |
| 20260502020052 | 15 | 288 | 0.0 | 3.2 | 0.00 | 0.18 | 0.18 | 81 | 1016.1 |
| 20260502015545 | 15 | 34 | 1.6 | 3.2 | 0.00 | 0.18 | 0.18 | 81 | 1016.0 |
| 20260502015042 | 15 | 34 | 0.0 | 3.2 | 0.00 | 0.18 | 0.18 | 80 | 1015.9 |
| 20260502014551 | 15 | 152 | 1.6 | 3.2 | 0.00 | 0.18 | 0.18 | 80 | 1016.0 |
| 20260502014038 | 15 | 155 | 0.0 | 3.2 | 0.00 | 0.18 | 0.18 | 80 | 1016.0 |
| 20260502013538 | 15 | 168 | 1.6 | 3.2 | 0.00 | 0.18 | 0.18 | 79 | 1016.0 |
| 20260502013057 | 15 | 0 | 1.6 | 3.2 | 0.00 | 0.18 | 0.18 | 78 | 1015.9 |
| 20260502012538 | 16 | 155 | 0.0 | 3.2 | 0.00 | 0.18 | 0.18 | 78 | 1015.9 |
| 20260502012039 | 16 | 148 | 0.0 | 3.2 | 0.00 | 0.18 | 0.18 | 77 | 1015.9 |
| 20260502011602 | 16 | 0 | 0.0 | 3.2 | 0.00 | 0.18 | 0.18 | 77 | 1015.7 |
| 20260502011038 | 16 | 0 | 0.0 | 3.2 | 0.00 | 0.18 | 0.18 | 76 | 1015.6 |
| 20260502010538 | 16 | 0 | 0.0 | 3.2 | 0.00 | 0.18 | 0.18 | 76 | 1015.5 |
| 20260502010052 | 16 | 0 | 0.0 | 3.2 | 0.00 | 0.18 | 0.18 | 75 | 1015.7 |
| 20260502005538 | 16 | 136 | 0.0 | 4.8 | 0.00 | 0.18 | 0.18 | 75 | 1015.6 |
| 20260502005042 | 16 | 0 | 0.0 | 4.8 | 0.00 | 0.18 | 0.18 | 75 | 1015.6 |
| 20260502004554 | 16 | 127 | 0.0 | 6.4 | 0.00 | 0.18 | 0.18 | 75 | 1015.6 |
| 20260502004042 | 16 | 98 | 1.6 | 8.0 | 0.00 | 0.18 | 0.18 | 74 | 1015.6 |
| 20260502003540 | 16 | 116 | 1.6 | 8.0 | 0.00 | 0.18 | 0.18 | 74 | 1015.4 |
| 20260502003050 | 16 | 127 | 3.2 | 8.0 | 0.00 | 0.18 | 0.18 | 74 | 1015.4 |
| 20260502002541 | 16 | 98 | 1.6 | 8.0 | 0.00 | 0.18 | 0.18 | 74 | 1015.3 |
| 20260502002041 | 16 | 116 | 3.2 | 9.7 | 0.00 | 0.18 | 0.18 | 74 | 1015.2 |
| 20260502001558 | 17 | 121 | 3.2 | 11.3 | 0.00 | 0.18 | 0.18 | 74 | 1015.3 |
| 20260502001043 | 17 | 116 | 3.2 | 11.3 | 0.00 | 0.18 | 0.18 | 74 | 1015.4 |
| 20260502000541 | 17 | 105 | 3.2 | 8.0 | 0.00 | 0.18 | 0.18 | 74 | 1015.6 |
| 20260502000101 | 17 | 109 | 3.2 | 8.0 | 0.00 | 0.18 | 0.18 | 73 | 1015.9 |
| 20260501235538 | 17 | 155 | 1.6 | 8.0 | 0.00 | 0.18 | 0.18 | 72 | 1015.9 |
| 20260501235043 | 17 | 127 | 3.2 | 8.0 | 0.00 | 0.18 | 0.18 | 72 | 1015.8 |
| 20260501234553 | 17 | 138 | 3.2 | 14.5 | 0.00 | 0.18 | 0.18 | 72 | 1015.7 |
| 20260501234038 | 17 | 141 | 4.8 | 14.5 | 0.00 | 0.18 | 0.18 | 71 | 1015.7 |
| 20260501233541 | 17 | 180 | 8.0 | 14.5 | 0.00 | 0.18 | 0.18 | 71 | 1015.5 |
| 20260501233104 | 17 | 131 | 4.8 | 11.3 | 0.00 | 0.18 | 0.18 | 71 | 1015.1 |
| 20260501232541 | 17 | 127 | 4.8 | 11.3 | 0.00 | 0.18 | 0.18 | 71 | 1014.9 |
| 20260501232041 | 17 | 100 | 4.8 | 9.7 | 0.00 | 0.18 | 0.18 | 71 | 1015.1 |
| 20260501231620 | 17 | 107 | 3.2 | 11.3 | 0.00 | 0.18 | 0.18 | 70 | 1015.1 |
| 20260501231042 | 17 | 123 | 4.8 | 11.3 | 0.00 | 0.18 | 0.18 | 70 | 1015.2 |
| 20260501230542 | 17 | 119 | 3.2 | 16.1 | 0.00 | 0.18 | 0.18 | 70 | 1015.4 |
| 20260501230116 | 17 | 140 | 4.8 | 16.1 | 0.00 | 0.18 | 0.18 | 69 | 1015.3 |
| 20260501225541 | 17 | 119 | 3.2 | 20.9 | 0.00 | 0.18 | 0.18 | 68 | 1015.1 |
| 20260501225041 | 17 | 72 | 3.2 | 20.9 | 0.00 | 0.18 | 0.18 | 67 | 1014.6 |
| 20260501224557 | 17 | 45 | 11.3 | 20.9 | 0.00 | 0.18 | 0.18 | 66 | 1014.3 |
| 20260501224040 | 17 | 123 | 6.4 | 19.3 | 0.00 | 0.18 | 0.18 | 67 | 1014.0 |
| 20260501223541 | 17 | 83 | 8.0 | 24.1 | 0.00 | 0.18 | 0.18 | 66 | 1013.9 |
| 20260501223055 | 17 | 77 | 9.7 | 24.1 | 0.00 | 0.18 | 0.18 | 66 | 1014.0 |
| 20260501222542 | 17 | 94 | 8.0 | 17.7 | 0.00 | 0.18 | 0.18 | 66 | 1014.0 |
| 20260501222042 | 17 | 61 | 8.0 | 17.7 | 0.00 | 0.18 | 0.18 | 66 | 1014.2 |
| 20260501221604 | 17 | 28 | 11.3 | 17.7 | 0.00 | 0.18 | 0.18 | 65 | 1014.3 |
| 20260501221041 | 17 | 70 | 3.2 | 16.1 | 0.00 | 0.18 | 0.18 | 67 | 1014.3 |
| 20260501220541 | 18 | 83 | 4.8 | 16.1 | 0.00 | 0.18 | 0.18 | 65 | 1014.3 |
| 20260501220100 | 18 | 83 | 4.8 | 14.5 | 0.00 | 0.18 | 0.18 | 68 | 1014.3 |
| 20260501215543 | 17 | 98 | 1.6 | 16.1 | 0.00 | 0.18 | 0.18 | 67 | 1014.3 |
| 20260501215041 | 17 | 58 | 6.4 | 16.1 | 0.00 | 0.18 | 0.18 | 64 | 1014.3 |
| 20260501214551 | 17 | 87 | 8.0 | 19.3 | 0.00 | 0.18 | 0.18 | 63 | 1014.3 |
| 20260501214040 | 17 | 41 | 8.0 | 20.9 | 0.00 | 0.18 | 0.18 | 64 | 1014.1 |
| 20260501213542 | 17 | 105 | 11.3 | 22.5 | 0.00 | 0.18 | 0.18 | 62 | 1014.3 |
| 20260501213054 | 17 | 58 | 14.5 | 27.4 | 0.00 | 0.18 | 0.18 | 61 | 1014.2 |
| 20260501212541 | 17 | 75 | 12.9 | 27.4 | 0.00 | 0.18 | 0.18 | 62 | 1014.3 |
| 20260501212041 | 17 | 26 | 14.5 | 27.4 | 0.00 | 0.18 | 0.18 | 60 | 1014.5 |
| 20260501211551 | 18 | 83 | 8.0 | 19.3 | 0.00 | 0.18 | 0.18 | 60 | 1014.4 |
| 20260501211041 | 18 | 91 | 11.3 | 30.6 | 0.00 | 0.18 | 0.18 | 61 | 1014.5 |
| 20260501210541 | 18 | 55 | 14.5 | 30.6 | 0.00 | 0.18 | 0.18 | 61 | 1014.4 |
| 20260501210051 | 18 | 83 | 11.3 | 27.4 | 0.00 | 0.18 | 0.18 | 61 | 1014.1 |
| 20260501205546 | 18 | 65 | 14.5 | 40.2 | 0.00 | 0.18 | 0.18 | 62 | 1013.9 |
| 20260501205041 | 17 | 47 | 16.1 | 53.1 | 0.00 | 0.18 | 0.18 | 59 | 1013.7 |
| 20260501204551 | 17 | 111 | 20.9 | 53.1 | 0.00 | 0.18 | 0.18 | 58 | 1013.6 |
| 20260501204045 | 17 | 91 | 20.9 | 53.1 | 0.00 | 0.18 | 0.18 | 58 | 1013.5 |
| 20260501203542 | 17 | 71 | 17.7 | 33.8 | 0.00 | 0.18 | 0.18 | 58 | 1013.9 |
| 20260501203053 | 18 | 105 | 14.5 | 33.8 | 0.00 | 0.18 | 0.18 | 62 | 1013.9 |
| 20260501202542 | 17 | 49 | 11.3 | 24.1 | 0.00 | 0.18 | 0.18 | 66 | 1014.0 |
| 20260501202042 | 17 | 70 | 14.5 | 29.0 | 0.00 | 0.18 | 0.18 | 65 | 1014.0 |
| 20260501201547 | 17 | 78 | 11.3 | 29.0 | 0.00 | 0.18 | 0.18 | 67 | 1014.3 |
| 20260501201043 | 17 | 74 | 11.3 | 25.7 | 0.00 | 0.18 | 0.18 | 67 | 1014.2 |
| 20260501200541 | 17 | 78 | 11.3 | 33.8 | 0.00 | 0.18 | 0.18 | 67 | 1014.1 |
| 20260501200053 | 16 | 62 | 19.3 | 33.8 | 0.00 | 0.18 | 0.18 | 66 | 1014.5 |
| 20260501195540 | 16 | 39 | 14.5 | 33.8 | 0.00 | 0.18 | 0.18 | 67 | 1014.6 |
| 20260501195041 | 16 | 66 | 9.7 | 33.8 | 0.00 | 0.18 | 0.18 | 68 | 1014.7 |
| 20260501194552 | 16 | 101 | 12.9 | 32.2 | 0.00 | 0.18 | 0.18 | 69 | 1014.7 |
| 20260501194042 | 16 | 88 | 9.7 | 32.2 | 0.00 | 0.18 | 0.18 | 71 | 1014.8 |
| 20260501193544 | 16 | 95 | 14.5 | 32.2 | 0.00 | 0.18 | 0.18 | 70 | 1015.0 |
| 20260501193052 | 16 | 89 | 12.9 | 27.4 | 0.00 | 0.18 | 0.18 | 72 | 1015.1 |
| 20260501192541 | 16 | 53 | 9.7 | 22.5 | 0.00 | 0.18 | 0.18 | 73 | 1015.2 |
| 20260501192042 | 16 | 26 | 11.3 | 22.5 | 0.00 | 0.18 | 0.18 | 73 | 1015.6 |
| 20260501191551 | 15 | 62 | 12.9 | 22.5 | 0.00 | 0.18 | 0.18 | 73 | 1015.8 |
| 20260501191044 | 15 | 66 | 6.4 | 22.5 | 0.00 | 0.18 | 0.18 | 75 | 1015.8 |
| 20260501190541 | 15 | 66 | 9.7 | 22.5 | 0.00 | 0.18 | 0.18 | 74 | 1016.1 |
| 20260501190054 | 15 | 57 | 8.0 | 19.3 | 0.00 | 0.18 | 0.18 | 75 | 1015.9 |
| 20260501185540 | 15 | 74 | 8.0 | 22.5 | 0.00 | 0.18 | 0.18 | 76 | 1016.3 |
| 20260501185041 | 15 | 99 | 8.0 | 22.5 | 0.00 | 0.18 | 0.18 | 76 | 1015.9 |
| 20260501184548 | 15 | 101 | 12.9 | 22.5 | 0.00 | 0.18 | 0.18 | 75 | 1016.0 |
| 20260501184043 | 15 | 80 | 6.4 | 22.5 | 0.00 | 0.18 | 0.18 | 76 | 1016.3 |
| 20260501183542 | 15 | 78 | 9.7 | 22.5 | 0.00 | 0.18 | 0.18 | 76 | 1016.1 |
| 20260501183055 | 15 | 88 | 8.0 | 22.5 | 0.00 | 0.18 | 0.18 | 77 | 1016.5 |
| 20260501182541 | 15 | 35 | 11.3 | 22.5 | 0.00 | 0.18 | 0.18 | 78 | 1016.5 |
| 20260501182042 | 15 | 67 | 9.7 | 17.7 | 0.00 | 0.18 | 0.18 | 78 | 1016.6 |
| 20260501181556 | 15 | 55 | 6.4 | 20.9 | 0.00 | 0.18 | 0.18 | 78 | 1016.9 |
| 20260501181042 | 15 | 72 | 6.4 | 20.9 | 0.00 | 0.18 | 0.18 | 78 | 1017.1 |
| 20260501180538 | 15 | 47 | 8.0 | 17.7 | 0.00 | 0.18 | 0.18 | 79 | 1017.1 |
| 20260501180053 | 15 | 33 | 6.4 | 16.1 | 0.00 | 0.18 | 0.18 | 79 | 1017.3 |
| 20260501175543 | 15 | 87 | 6.4 | 17.7 | 0.00 | 0.18 | 0.18 | 81 | 1017.4 |
| 20260501175042 | 15 | 89 | 6.4 | 20.9 | 0.00 | 0.18 | 0.18 | 79 | 1017.1 |
| 20260501174557 | 15 | 62 | 11.3 | 20.9 | 0.00 | 0.18 | 0.18 | 79 | 1017.3 |
| 20260501174042 | 15 | 69 | 4.8 | 14.5 | 0.00 | 0.18 | 0.18 | 81 | 1017.2 |
| 20260501173542 | 15 | 59 | 4.8 | 16.1 | 0.00 | 0.18 | 0.18 | 81 | 1017.3 |
| 20260501173105 | 15 | 60 | 6.4 | 16.1 | 0.00 | 0.18 | 0.18 | 82 | 1017.2 |
| 20260501172541 | 14 | 70 | 8.0 | 16.1 | 0.00 | 0.18 | 0.18 | 83 | 1017.2 |
| 20260501172041 | 14 | 53 | 6.4 | 16.1 | 0.00 | 0.18 | 0.18 | 83 | 1017.3 |
| 20260501171550 | 14 | 92 | 9.7 | 17.7 | 0.00 | 0.18 | 0.18 | 83 | 1017.5 |
| 20260501171042 | 14 | 67 | 9.7 | 17.7 | 0.00 | 0.18 | 0.18 | 84 | 1017.5 |
| 20260501170541 | 14 | 58 | 4.8 | 14.5 | 0.00 | 0.18 | 0.18 | 84 | 1017.6 |